Beaver County Airport
KBVI : now visible

Airfield :











YOU CAN JOIN US ON...

 
LOGIN :

Register | Disclaimer

   EN    FR    IT 

 









Legend :    VFR   Marginal VFR   IFR   Intensive IFR   Very Intensive IFR
Visi :
Ceiling :
>= 8 km
>= 3000ft
5 to 8 km
1000 to 3000 ft
1500m to 5 km
500 to 1000 ft
800 to 1500m
200 to 500 ft
< 800m
< 200 ft
Symbols :   Thunderstorms  Fog  Heavy snow  Heavy precipitations  Wind > 20 kt






- Airport Elevation : 1253 ft


KBVI - Beaver County

CURRENT METAR :
  • 202115Z AUTO 21007KT 10SM SCT047 SCT055 SCT070 29/22 A2976 RMK AO2 LTG DSNT N T02850215

EXPIRED METARs :
  • 202055Z AUTO 22004G08KT 10SM SCT034 SCT040 SCT048 29/22 A2977 RMK AO2 T02860218
  • 202035Z AUTO 20006KT 10SM SCT034 SCT043 SCT049 28/22 A2976 RMK AO2 LTG DSNT N T02830219
  • 202015Z AUTO 24010KT 10SM SCT035 SCT040 SCT049 29/22 A2977 RMK AO2 LTG DSNT N T02890218
  • 201955Z AUTO 24008KT 10SM SCT033 SCT044 SCT050 29/22 A2977 RMK AO2 T02900218
  • 201935Z AUTO 20007KT 10SM SCT033 BKN040 BKN048 28/22 A2978 RMK AO2 LTG DSNT NW T02830221
  • 201915Z AUTO 21007KT 10SM SCT033 SCT048 29/22 A2978 RMK AO2 T02890224
  • 201855Z AUTO 24009KT 10SM SCT033 SCT040 29/22 A2979 RMK AO2 T02900219
  • 201835Z AUTO 22007G14KT 10SM BKN033 BKN040 27/21 A2979 RMK AO2 LTG DSNT NW T02720212

TAF KBVI
Valid from the 20 at 18:00 until the 21 at 18:00 UTC


201727Z 2018/2118 22010KT P6SM BKN035
PROB30 2106/2110 22006KT P6SM -TSRA BKN050CB
KZOB FIR / North America



MET'MAP, your aeronautical weather chart ! - Copyright ORBIFLY December 2007 - Disclaimer

ORBIFLY MET'MAP TEAM :

Programming & Development : Alexandra Zaïnal
Concept & original design : Baudouin d'Aumeries
Assistance for programming : Marc-Olivier Méhu
Technical & hardware support : Manuel Goepfert

Contact : metmap@orbifly.com




SOURCES & CREDITS :

   NOAA       Earth
Advisory